createdAt,value
2022-07-31T00:00:26.564Z,60.20
2022-07-31T00:02:55.029Z,60.46
2022-07-31T00:05:23.334Z,60.62
2022-07-31T00:07:51.799Z,60.84
2022-07-31T00:10:20.032Z,60.13
2022-07-31T00:12:47.942Z,59.88
2022-07-31T00:15:17.952Z,60.32
2022-07-31T00:17:46.443Z,60.81
2022-07-31T00:20:17.088Z,60.83
2022-07-31T00:22:46.894Z,59.93
2022-07-31T00:25:17.157Z,60.34
2022-07-31T00:27:45.359Z,61.01
2022-07-31T00:30:14.145Z,60.10
2022-07-31T00:32:44.014Z,59.28
2022-07-31T00:35:14.106Z,59.63
2022-07-31T00:37:44.317Z,59.74
2022-07-31T00:40:14.252Z,58.96
2022-07-31T00:42:42.844Z,59.47
2022-07-31T00:45:13.751Z,59.12
2022-07-31T00:47:43.935Z,58.90
2022-07-31T00:50:13.476Z,59.47
2022-07-31T00:52:43.272Z,59.00
2022-07-31T00:55:11.439Z,59.14
2022-07-31T00:57:39.350Z,59.84
2022-07-31T01:00:08.927Z,60.73
2022-07-31T01:02:38.368Z,60.92
2022-07-31T01:05:18.953Z,60.48
2022-07-31T01:07:48.807Z,60.32
2022-07-31T01:10:36.943Z,60.08
2022-07-31T01:13:09.430Z,61.17
2022-07-31T01:15:39.748Z,60.94
2022-07-31T01:18:09.096Z,61.12
2022-07-31T01:20:44.480Z,60.41
2022-07-31T01:23:34.908Z,61.27
2022-07-31T01:26:19.557Z,60.89
2022-07-31T01:29:01.661Z,60.53
2022-07-31T01:31:37.025Z,61.57
2022-07-31T01:34:10.114Z,60.79
2022-07-31T01:36:43.058Z,60.60
2022-07-31T01:39:11.589Z,60.70
2022-07-31T01:41:43.956Z,60.50
2022-07-31T01:44:16.502Z,60.29
2022-07-31T01:46:47.552Z,60.40
2022-07-31T01:49:16.899Z,60.32
2022-07-31T01:51:46.574Z,61.50
2022-07-31T01:54:18.228Z,61.15
2022-07-31T01:56:48.937Z,60.99
2022-07-31T01:59:22.693Z,60.98
2022-07-31T02:01:53.107Z,60.52
2022-07-31T02:04:22.744Z,60.90
2022-07-31T02:06:51.820Z,61.17
2022-07-31T02:09:23.295Z,60.34
2022-07-31T02:11:54.371Z,61.26
2022-07-31T02:14:25.773Z,61.72
2022-07-31T02:16:55.796Z,61.14
2022-07-31T02:19:25.675Z,61.62
2022-07-31T02:21:54.304Z,61.51
2022-07-31T02:24:23.082Z,62.97
2022-07-31T02:26:52.739Z,61.32
2022-07-31T02:29:22.564Z,61.23
2022-07-31T02:32:03.279Z,60.72
2022-07-31T02:34:33.346Z,60.79
2022-07-31T02:37:02.403Z,61.31
2022-07-31T02:39:32.120Z,61.95
2022-07-31T02:42:02.329Z,61.56
2022-07-31T02:44:34.694Z,61.59
2022-07-31T02:47:05.333Z,61.64
2022-07-31T02:49:34.722Z,61.28
2022-07-31T02:52:06.733Z,61.69
2022-07-31T02:54:39.223Z,62.32
2022-07-31T02:57:07.953Z,62.05
2022-07-31T02:59:37.523Z,61.53
2022-07-31T03:02:07.505Z,61.66
2022-07-31T03:04:38.682Z,61.85
2022-07-31T03:07:06.574Z,61.64
2022-07-31T03:09:34.631Z,61.83
2022-07-31T03:12:06.611Z,62.06
2022-07-31T03:14:37.532Z,61.65
2022-07-31T03:17:09.060Z,61.38
2022-07-31T03:19:37.401Z,62.54
2022-07-31T03:22:11.139Z,62.79
2022-07-31T03:24:41.606Z,63.02
2022-07-31T03:27:10.002Z,62.42
2022-07-31T03:29:43.108Z,63.98
2022-07-31T03:32:13.278Z,63.62
2022-07-31T03:34:41.194Z,63.62
2022-07-31T03:37:10.289Z,64.62
2022-07-31T03:39:38.499Z,63.46
2022-07-31T03:42:13.040Z,63.38
2022-07-31T03:44:47.620Z,63.26
2022-07-31T03:47:17.429Z,63.60
2022-07-31T03:49:46.432Z,63.24
2022-07-31T03:52:15.123Z,63.01
2022-07-31T03:54:43.632Z,63.66
2022-07-31T03:57:12.826Z,63.25
2022-07-31T03:59:48.342Z,63.32
2022-07-31T04:02:18.816Z,63.31
2022-07-31T04:04:47.413Z,63.92
2022-07-31T04:07:15.547Z,62.94
2022-07-31T04:09:43.639Z,63.06
2022-07-31T04:12:12.082Z,62.47
2022-07-31T04:14:40.022Z,63.31
2022-07-31T04:17:08.793Z,63.01
2022-07-31T04:19:39.341Z,63.11
2022-07-31T04:22:08.637Z,63.37
2022-07-31T04:24:37.550Z,63.33
2022-07-31T04:27:10.765Z,63.19
2022-07-31T04:29:40.946Z,63.28
2022-07-31T04:32:08.808Z,63.26
2022-07-31T04:34:38.790Z,63.25
2022-07-31T04:37:07.951Z,63.68
2022-07-31T04:39:35.870Z,62.97
2022-07-31T04:42:04.449Z,63.03
2022-07-31T04:44:32.870Z,62.94
2022-07-31T04:47:01.196Z,63.14
2022-07-31T04:49:30.705Z,62.78
2022-07-31T04:52:00.820Z,62.78
2022-07-31T04:54:30.318Z,62.65
2022-07-31T04:56:58.781Z,63.00
2022-07-31T04:59:59.759Z,63.23
2022-07-31T05:02:15.711Z,64.24
2022-07-31T05:04:43.687Z,63.57
2022-07-31T05:07:13.710Z,62.79
2022-07-31T05:09:41.903Z,62.23
2022-07-31T05:12:10.107Z,64.83
2022-07-31T05:14:38.162Z,63.31
2022-07-31T05:17:06.447Z,63.91
2022-07-31T05:19:35.318Z,63.56
2022-07-31T05:22:06.430Z,63.16
2022-07-31T05:24:36.150Z,62.83
2022-07-31T05:27:04.985Z,63.52
2022-07-31T05:29:34.203Z,63.49
2022-07-31T05:32:02.947Z,62.42
2022-07-31T05:34:32.749Z,63.06
2022-07-31T05:37:02.129Z,63.59
2022-07-31T05:39:31.003Z,62.15
2022-07-31T05:42:03.678Z,62.08
2022-07-31T05:44:32.477Z,61.50
2022-07-31T05:49:28.929Z,62.67
2022-07-31T05:51:57.516Z,62.64
2022-07-31T05:54:25.423Z,62.72
2022-07-31T05:57:09.846Z,61.98
2022-07-31T05:59:38.086Z,61.73
2022-07-31T06:02:06.716Z,61.69
2022-07-31T06:04:36.467Z,61.62
2022-07-31T06:07:04.734Z,61.36
2022-07-31T06:09:32.778Z,61.54
2022-07-31T06:12:01.292Z,60.88
2022-07-31T06:14:31.728Z,61.04
2022-07-31T06:17:00.902Z,61.31
2022-07-31T06:19:29.096Z,61.17
2022-07-31T06:21:57.062Z,60.75
2022-07-31T06:24:25.946Z,60.50
2022-07-31T06:26:58.426Z,60.74
2022-07-31T06:29:42.176Z,60.69
2022-07-31T06:32:11.812Z,61.16
2022-07-31T06:34:43.008Z,61.05
2022-07-31T06:37:11.019Z,60.39
2022-07-31T06:39:54.448Z,60.43
2022-07-31T06:42:27.177Z,60.13
2022-07-31T06:45:12.328Z,59.75
2022-07-31T06:47:50.194Z,59.60
2022-07-31T06:50:18.880Z,59.38
2022-07-31T06:52:47.151Z,59.28
2022-07-31T06:55:15.250Z,59.15
2022-07-31T06:57:43.501Z,58.76
2022-07-31T07:00:19.615Z,58.91
2022-07-31T07:02:50.462Z,58.17
2022-07-31T07:05:18.627Z,57.75
2022-07-31T07:07:47.932Z,57.65
2022-07-31T07:10:16.163Z,57.30
2022-07-31T07:12:47.471Z,57.39
2022-07-31T07:15:16.226Z,57.39
2022-07-31T07:17:44.612Z,56.94
2022-07-31T07:20:14.724Z,56.98
2022-07-31T07:22:43.311Z,56.04
2022-07-31T07:25:12.742Z,56.54
2022-07-31T07:27:40.878Z,55.96
2022-07-31T07:30:10.041Z,56.53
2022-07-31T07:32:38.085Z,55.96
2022-07-31T07:35:09.265Z,55.97
2022-07-31T07:37:42.669Z,55.20
2022-07-31T07:40:11.709Z,55.44
2022-07-31T07:42:40.346Z,55.23
2022-07-31T07:45:09.137Z,55.23
2022-07-31T07:47:53.648Z,55.21
2022-07-31T07:50:26.897Z,54.62
2022-07-31T07:53:00.993Z,54.82
2022-07-31T07:55:37.403Z,54.77
2022-07-31T07:58:12.030Z,53.75
2022-07-31T08:00:42.920Z,54.04
2022-07-31T08:03:48.928Z,53.64
2022-07-31T08:05:59.314Z,53.61
2022-07-31T08:08:28.938Z,53.30
2022-07-31T08:11:01.108Z,53.01
2022-07-31T08:13:29.678Z,53.08
2022-07-31T08:16:03.075Z,52.87
2022-07-31T08:18:31.761Z,52.60
2022-07-31T08:20:59.812Z,52.37
2022-07-31T08:23:29.649Z,52.02
2022-07-31T08:25:57.943Z,51.43
2022-07-31T08:28:27.033Z,51.11
2022-07-31T08:30:55.088Z,51.45
2022-07-31T08:33:24.113Z,51.42
2022-07-31T08:35:53.091Z,51.58
2022-07-31T08:38:21.304Z,51.23
2022-07-31T08:40:51.738Z,51.06
2022-07-31T08:46:07.962Z,51.05
2022-07-31T08:48:41.041Z,50.86
2022-07-31T08:51:12.637Z,50.17
2022-07-31T08:53:45.338Z,50.12
2022-07-31T08:56:15.247Z,50.50
2022-07-31T08:58:43.421Z,49.58
2022-07-31T09:01:13.081Z,50.24
2022-07-31T09:03:41.371Z,49.83
2022-07-31T09:06:10.896Z,49.79
2022-07-31T09:08:39.197Z,49.56
2022-07-31T09:11:09.380Z,49.02
2022-07-31T09:13:39.191Z,48.96
2022-07-31T09:16:08.997Z,47.51
2022-07-31T09:18:36.976Z,48.57
2022-07-31T09:21:07.631Z,48.56
2022-07-31T09:23:46.032Z,48.72
2022-07-31T09:26:15.265Z,44.83
2022-07-31T09:28:47.711Z,47.36
2022-07-31T09:31:16.239Z,46.99
2022-07-31T09:33:47.359Z,47.78
2022-07-31T09:36:23.681Z,47.31
2022-07-31T09:38:53.150Z,46.38
2022-07-31T09:41:56.887Z,47.25
2022-07-31T09:44:14.468Z,46.96
2022-07-31T09:46:44.072Z,47.23
2022-07-31T09:49:12.316Z,46.63
2022-07-31T09:51:41.932Z,46.69
2022-07-31T09:54:20.921Z,45.30
2022-07-31T09:56:50.238Z,43.28
2022-07-31T09:59:19.595Z,44.57
2022-07-31T10:01:49.851Z,44.66
2022-07-31T10:04:18.584Z,45.22
2022-07-31T10:06:48.762Z,45.34
2022-07-31T10:09:19.427Z,44.03
2022-07-31T10:11:51.140Z,44.05
2022-07-31T10:14:25.145Z,42.15
2022-07-31T10:16:57.417Z,43.18
2022-07-31T10:19:28.296Z,42.06
2022-07-31T10:22:01.464Z,41.99
2022-07-31T10:24:33.443Z,41.72
2022-07-31T10:27:10.690Z,39.67
2022-07-31T10:29:41.068Z,42.63
2022-07-31T10:32:10.581Z,41.97
2022-07-31T10:34:39.963Z,42.57
2022-07-31T10:37:14.390Z,42.51
2022-07-31T10:39:57.251Z,38.29
2022-07-31T10:42:36.600Z,37.31
2022-07-31T10:45:16.880Z,36.57
2022-07-31T10:47:58.066Z,36.63
2022-07-31T10:50:31.283Z,36.83
2022-07-31T10:53:11.939Z,40.74
2022-07-31T10:55:45.802Z,36.76
2022-07-31T10:58:20.564Z,40.20
2022-07-31T11:01:06.239Z,39.12
2022-07-31T11:03:40.647Z,38.13
2022-07-31T11:06:08.921Z,37.50
2022-07-31T11:08:44.508Z,39.42
2022-07-31T11:11:15.256Z,35.77
2022-07-31T11:13:48.121Z,38.88
2022-07-31T11:16:18.574Z,37.56
2022-07-31T11:18:57.927Z,37.07
2022-07-31T11:21:39.313Z,34.86
2022-07-31T11:24:15.613Z,36.29
2022-07-31T11:26:49.791Z,37.89
2022-07-31T11:30:01.030Z,39.02
2022-07-31T11:32:25.717Z,35.30
2022-07-31T11:34:55.630Z,35.75
2022-07-31T11:37:25.642Z,38.30
2022-07-31T11:39:54.854Z,37.98
2022-07-31T11:42:29.478Z,37.72
2022-07-31T11:45:11.229Z,37.92
2022-07-31T11:48:11.233Z,35.13
2022-07-31T11:50:39.818Z,36.80
2022-07-31T11:53:07.981Z,37.14
2022-07-31T11:55:45.719Z,36.48
2022-07-31T11:58:15.210Z,34.31
2022-07-31T12:00:51.599Z,37.87
2022-07-31T12:03:23.349Z,36.50
2022-07-31T12:05:53.277Z,36.73
2022-07-31T12:08:23.113Z,37.60
2022-07-31T12:10:53.887Z,37.22
2022-07-31T12:13:23.023Z,36.49
2022-07-31T12:15:59.502Z,36.66
2022-07-31T12:18:30.157Z,35.26
2022-07-31T12:20:59.520Z,35.96
2022-07-31T12:23:38.694Z,36.51
2022-07-31T12:26:12.611Z,36.77
2022-07-31T12:28:41.162Z,36.42
2022-07-31T12:31:09.080Z,36.82
2022-07-31T12:33:45.556Z,36.44
2022-07-31T12:36:17.992Z,32.16
2022-07-31T12:38:48.375Z,33.92
2022-07-31T12:41:17.510Z,36.11
2022-07-31T12:43:51.642Z,36.16
2022-07-31T12:46:22.657Z,35.55
2022-07-31T12:48:52.107Z,36.04
2022-07-31T12:51:45.155Z,35.28
2022-07-31T12:54:10.160Z,35.44
2022-07-31T12:56:39.731Z,35.58
2022-07-31T12:59:09.239Z,35.60
2022-07-31T13:01:37.784Z,35.39
2022-07-31T13:04:19.253Z,34.63
2022-07-31T13:06:51.157Z,34.81
2022-07-31T13:09:20.207Z,34.73
2022-07-31T13:11:49.327Z,34.75
2022-07-31T13:14:18.895Z,34.76
2022-07-31T13:16:48.453Z,34.19
2022-07-31T13:19:17.902Z,34.56
2022-07-31T13:21:49.053Z,34.22
2022-07-31T13:24:19.109Z,34.00
2022-07-31T13:26:47.409Z,34.11
2022-07-31T13:29:15.508Z,34.15
2022-07-31T13:31:44.035Z,33.50
2022-07-31T13:34:11.921Z,33.37
2022-07-31T13:36:41.331Z,33.64
2022-07-31T13:39:09.742Z,33.14
2022-07-31T13:41:39.185Z,31.50
2022-07-31T13:44:07.959Z,32.59
2022-07-31T13:46:36.474Z,32.41
2022-07-31T13:49:08.229Z,32.83
2022-07-31T13:51:36.923Z,32.24
2022-07-31T13:54:06.436Z,32.29
2022-07-31T13:56:41.860Z,32.40
2022-07-31T13:59:12.746Z,32.80
2022-07-31T14:02:05.049Z,33.02
2022-07-31T14:04:32.911Z,32.82
2022-07-31T14:07:07.272Z,32.56
2022-07-31T14:09:37.591Z,33.39
2022-07-31T14:12:06.328Z,33.58
2022-07-31T14:14:34.552Z,33.61
2022-07-31T14:17:02.735Z,33.75
2022-07-31T14:19:30.647Z,33.22
2022-07-31T14:22:12.892Z,33.39
2022-07-31T14:24:49.377Z,32.65
2022-07-31T14:27:20.449Z,33.30
2022-07-31T14:29:48.489Z,33.43
2022-07-31T14:32:16.486Z,33.51
2022-07-31T14:34:44.610Z,33.70
2022-07-31T14:37:12.483Z,33.38
2022-07-31T14:39:43.080Z,32.45
2022-07-31T14:42:12.341Z,32.26
2022-07-31T14:44:41.993Z,32.93
2022-07-31T14:47:11.061Z,32.97
2022-07-31T14:50:06.837Z,32.75
2022-07-31T14:52:27.695Z,33.32
2022-07-31T14:54:58.531Z,33.47
2022-07-31T14:57:26.589Z,32.62
2022-07-31T14:59:54.505Z,33.49
2022-07-31T15:02:23.086Z,33.84
2022-07-31T15:04:51.561Z,34.13
2022-07-31T15:07:35.020Z,33.89
2022-07-31T15:10:06.984Z,33.94
2022-07-31T15:12:35.415Z,33.74
2022-07-31T15:15:03.939Z,34.26
2022-07-31T15:17:31.901Z,33.68
2022-07-31T15:19:59.891Z,33.68
2022-07-31T15:22:28.105Z,33.38
2022-07-31T15:24:56.125Z,32.70
2022-07-31T15:27:26.592Z,32.39
2022-07-31T15:30:00.711Z,31.91
2022-07-31T15:32:36.991Z,32.19
2022-07-31T15:35:07.095Z,32.19
2022-07-31T15:37:36.396Z,32.41
2022-07-31T15:40:06.578Z,31.24
2022-07-31T15:42:40.154Z,31.19
2022-07-31T15:45:10.280Z,29.51
2022-07-31T15:47:39.140Z,29.13
2022-07-31T15:50:09.707Z,29.59
2022-07-31T15:52:37.905Z,29.62
2022-07-31T15:55:07.413Z,28.17
2022-07-31T15:57:36.945Z,28.92
2022-07-31T16:00:06.763Z,29.12
2022-07-31T16:02:39.229Z,30.78
2022-07-31T16:05:11.836Z,30.63
2022-07-31T16:08:32.589Z,30.04
2022-07-31T16:10:36.422Z,30.54
2022-07-31T16:13:05.843Z,30.72
2022-07-31T16:15:34.670Z,30.76
2022-07-31T16:18:03.190Z,30.91
2022-07-31T16:20:31.084Z,31.00
2022-07-31T16:23:01.351Z,31.13
2022-07-31T16:25:31.785Z,31.50
2022-07-31T16:28:03.084Z,31.66
2022-07-31T16:30:33.248Z,31.55
2022-07-31T16:33:01.187Z,31.83
2022-07-31T16:35:29.080Z,31.70
2022-07-31T16:37:57.244Z,32.42
2022-07-31T16:40:31.032Z,32.50
2022-07-31T16:43:46.712Z,32.54
2022-07-31T16:45:51.646Z,32.10
2022-07-31T16:48:19.848Z,32.33
2022-07-31T16:50:53.784Z,32.82
2022-07-31T16:54:10.714Z,32.93
2022-07-31T16:56:11.742Z,32.93
2022-07-31T16:58:40.194Z,33.12
2022-07-31T17:01:53.753Z,33.29
2022-07-31T17:04:00.851Z,33.18
2022-07-31T17:06:34.273Z,33.50
2022-07-31T17:09:16.835Z,33.53
2022-07-31T17:11:47.938Z,33.42
2022-07-31T17:14:16.769Z,33.22
2022-07-31T17:16:48.607Z,33.53
2022-07-31T17:19:42.605Z,33.55
2022-07-31T17:22:05.537Z,33.73
2022-07-31T17:24:37.296Z,33.98
2022-07-31T17:27:07.890Z,33.79
2022-07-31T17:29:36.702Z,33.73
2022-07-31T17:32:06.647Z,34.00
2022-07-31T17:34:35.343Z,33.97
2022-07-31T17:37:04.308Z,34.19
2022-07-31T17:39:32.415Z,34.20
2022-07-31T17:42:00.701Z,34.29
2022-07-31T17:44:28.949Z,34.46
2022-07-31T17:46:57.766Z,34.46
2022-07-31T17:49:28.222Z,34.72
2022-07-31T17:51:59.310Z,34.85
2022-07-31T17:54:30.307Z,34.83
2022-07-31T17:56:59.187Z,34.90
2022-07-31T17:59:27.550Z,34.96
2022-07-31T18:01:59.748Z,35.03
2022-07-31T18:04:32.014Z,35.20
2022-07-31T18:07:02.058Z,35.44
2022-07-31T18:09:30.226Z,35.42
2022-07-31T18:11:58.707Z,35.41
2022-07-31T18:14:26.771Z,35.51
2022-07-31T18:16:55.364Z,35.50
2022-07-31T18:19:23.664Z,35.69
2022-07-31T18:21:53.694Z,35.80
2022-07-31T18:24:22.752Z,35.93
2022-07-31T18:26:51.549Z,36.20
2022-07-31T18:29:19.428Z,36.12
2022-07-31T18:31:48.148Z,36.34
2022-07-31T18:34:16.282Z,36.24
2022-07-31T18:36:44.358Z,36.29
2022-07-31T18:39:13.772Z,36.44
2022-07-31T18:41:46.925Z,36.54
2022-07-31T18:44:17.223Z,36.60
2022-07-31T18:46:45.180Z,36.69
2022-07-31T18:51:01.665Z,36.91
2022-07-31T18:52:01.976Z,37.06
2022-07-31T18:54:33.889Z,37.20
2022-07-31T18:57:03.502Z,37.22
2022-07-31T18:59:32.067Z,37.42
2022-07-31T19:02:00.274Z,37.67
2022-07-31T19:04:29.472Z,37.78
2022-07-31T19:06:57.379Z,37.59
2022-07-31T19:09:25.420Z,37.82
2022-07-31T19:11:58.763Z,38.07
2022-07-31T19:14:26.964Z,38.18
2022-07-31T19:16:57.869Z,38.32
2022-07-31T19:19:25.773Z,38.28
2022-07-31T19:21:58.465Z,38.30
2022-07-31T19:24:26.383Z,38.84
2022-07-31T19:26:55.858Z,38.75
2022-07-31T19:29:24.820Z,39.12
2022-07-31T19:31:52.715Z,39.07
2022-07-31T19:34:20.614Z,39.13
2022-07-31T19:36:48.734Z,39.59
2022-07-31T19:39:17.570Z,40.06
2022-07-31T19:42:10.958Z,40.05
2022-07-31T19:44:34.834Z,41.62
2022-07-31T19:47:02.811Z,41.42
2022-07-31T19:49:34.090Z,41.58
2022-07-31T19:52:05.086Z,41.68
2022-07-31T19:54:33.175Z,42.10
2022-07-31T19:57:01.021Z,43.76
2022-07-31T19:59:31.874Z,43.30
2022-07-31T20:02:01.168Z,44.05
2022-07-31T20:04:29.506Z,43.86
2022-07-31T20:06:57.523Z,43.08
2022-07-31T20:09:25.494Z,43.17
2022-07-31T20:11:53.678Z,43.22
2022-07-31T20:14:21.549Z,44.55
2022-07-31T20:16:49.406Z,45.06
2022-07-31T20:19:18.941Z,44.53
2022-07-31T20:21:46.828Z,45.44
2022-07-31T20:24:14.677Z,45.85
2022-07-31T20:26:42.836Z,44.38
2022-07-31T20:29:10.718Z,44.66
2022-07-31T20:31:38.599Z,45.88
2022-07-31T20:34:06.775Z,45.82
2022-07-31T20:36:35.981Z,46.42
2022-07-31T20:39:04.770Z,44.80
2022-07-31T20:41:33.041Z,45.51
2022-07-31T20:44:01.128Z,45.29
2022-07-31T20:46:29.100Z,45.14
2022-07-31T20:48:59.032Z,45.55
2022-07-31T20:51:27.165Z,46.41
2022-07-31T20:53:56.404Z,45.94
2022-07-31T20:56:24.702Z,47.33
2022-07-31T20:58:52.566Z,46.83
2022-07-31T21:01:20.953Z,46.68
2022-07-31T21:03:49.531Z,46.71
2022-07-31T21:06:17.878Z,47.27
2022-07-31T21:08:46.347Z,46.93
2022-07-31T21:11:15.896Z,47.78
2022-07-31T21:13:45.334Z,47.41
2022-07-31T21:16:13.315Z,47.35
2022-07-31T21:18:43.450Z,47.11
2022-07-31T21:21:11.811Z,47.05
2022-07-31T21:23:39.910Z,47.29
2022-07-31T21:26:08.697Z,47.99
2022-07-31T21:28:39.520Z,47.79
2022-07-31T21:31:08.097Z,48.03
2022-07-31T21:33:36.818Z,48.00
2022-07-31T21:36:05.886Z,47.87
2022-07-31T21:38:35.740Z,48.04
2022-07-31T21:41:03.983Z,48.08
2022-07-31T21:43:33.522Z,48.22
2022-07-31T21:46:17.661Z,48.59
2022-07-31T21:48:46.454Z,49.32
2022-07-31T21:51:15.157Z,48.86
2022-07-31T21:53:43.093Z,48.95
2022-07-31T21:56:12.613Z,48.85
2022-07-31T21:58:40.680Z,48.96
2022-07-31T22:01:08.807Z,49.00
2022-07-31T22:03:38.508Z,49.02
2022-07-31T22:06:26.211Z,49.72
2022-07-31T22:08:54.684Z,49.33
2022-07-31T22:11:22.690Z,49.52
2022-07-31T22:13:50.562Z,49.60
2022-07-31T22:16:18.687Z,49.67
2022-07-31T22:18:49.537Z,49.57
2022-07-31T22:21:19.517Z,49.86
2022-07-31T22:23:47.966Z,50.04
2022-07-31T22:26:16.034Z,49.81
2022-07-31T22:28:45.036Z,49.97
2022-07-31T22:31:13.686Z,50.52
2022-07-31T22:33:41.788Z,50.48
2022-07-31T22:36:11.534Z,50.77
2022-07-31T22:38:43.798Z,50.97
2022-07-31T22:41:12.321Z,51.54
2022-07-31T22:44:10.985Z,51.24
2022-07-31T22:46:32.730Z,51.64
2022-07-31T22:49:02.716Z,51.35
2022-07-31T22:51:35.449Z,51.46
2022-07-31T22:54:06.335Z,51.49
2022-07-31T22:56:34.544Z,52.22
2022-07-31T22:59:02.566Z,52.11
2022-07-31T23:01:30.762Z,51.99
2022-07-31T23:03:58.635Z,51.60
2022-07-31T23:06:31.337Z,51.66
2022-07-31T23:09:02.527Z,51.93
2022-07-31T23:11:30.556Z,52.37
2022-07-31T23:13:58.711Z,51.86
2022-07-31T23:16:27.426Z,51.97
2022-07-31T23:18:55.375Z,51.50
2022-07-31T23:21:23.583Z,51.61
2022-07-31T23:23:51.895Z,51.65
2022-07-31T23:26:23.943Z,51.71
2022-07-31T23:28:53.467Z,51.93
2022-07-31T23:31:22.586Z,51.45
2022-07-31T23:33:51.445Z,51.79
2022-07-31T23:36:20.213Z,51.66
2022-07-31T23:38:48.514Z,51.40
2022-07-31T23:41:36.849Z,51.58
2022-07-31T23:44:05.915Z,52.32
2022-07-31T23:46:38.518Z,52.31
2022-07-31T23:49:09.025Z,51.63
2022-07-31T23:51:37.026Z,51.48
2022-07-31T23:54:06.143Z,51.82
2022-07-31T23:56:34.825Z,52.27
2022-07-31T23:59:02.726Z,52.37
